createdAt,value
2017-09-04T00:01:03.075Z,98.00
2017-09-04T00:03:30.599Z,98.10
2017-09-04T00:05:58.079Z,98.10
2017-09-04T00:08:25.559Z,98.10
2017-09-04T00:10:53.062Z,98.10
2017-09-04T00:13:20.567Z,98.10
2017-09-04T00:15:49.003Z,98.20
2017-09-04T00:18:16.507Z,98.20
2017-09-04T00:20:44.001Z,98.20
2017-09-04T00:23:11.511Z,98.20
2017-09-04T00:25:39.007Z,98.30
2017-09-04T00:28:07.418Z,98.30
2017-09-04T00:30:34.924Z,98.40
2017-09-04T00:33:02.423Z,98.30
2017-09-04T00:35:29.911Z,98.00
2017-09-04T00:37:57.414Z,97.90
2017-09-04T00:40:24.920Z,98.00
2017-09-04T00:42:52.418Z,98.00
2017-09-04T00:45:20.865Z,98.00
2017-09-04T00:47:48.351Z,98.10
2017-09-04T00:50:15.864Z,98.20
2017-09-04T00:52:43.350Z,98.20
2017-09-04T00:55:10.841Z,98.30
2017-09-04T00:57:38.342Z,98.40
2017-09-04T01:00:06.774Z,98.20
2017-09-04T01:02:34.301Z,98.30
2017-09-04T01:05:01.806Z,98.30
2017-09-04T01:07:29.314Z,98.40
2017-09-04T01:09:56.810Z,98.40
2017-09-04T01:12:24.322Z,98.50
2017-09-04T01:14:51.811Z,98.70
2017-09-04T01:17:19.319Z,98.70
2017-09-04T01:19:46.831Z,98.80
2017-09-04T01:22:16.302Z,98.80
2017-09-04T01:24:43.790Z,98.70
2017-09-04T01:27:11.303Z,98.70
2017-09-04T01:29:38.803Z,98.70
2017-09-04T01:32:06.286Z,98.70
2017-09-04T01:34:35.742Z,98.70
2017-09-04T01:37:03.227Z,98.80
2017-09-04T01:39:30.711Z,98.70
2017-09-04T01:41:58.235Z,98.70
2017-09-04T01:44:25.727Z,98.60
2017-09-04T01:46:53.213Z,98.70
2017-09-04T01:49:20.732Z,98.70
2017-09-04T01:51:48.211Z,98.70
2017-09-04T01:54:15.714Z,98.70
2017-09-04T01:56:43.219Z,98.60
2017-09-04T01:59:11.687Z,98.40
2017-09-04T02:01:39.215Z,98.40
2017-09-04T02:04:06.702Z,98.40
2017-09-04T02:06:34.201Z,98.40
2017-09-04T02:09:01.683Z,98.40
2017-09-04T02:11:29.183Z,98.50
2017-09-04T02:13:56.659Z,98.50
2017-09-04T02:16:24.174Z,98.50
2017-09-04T02:18:51.658Z,98.60
2017-09-04T02:21:19.167Z,98.60
2017-09-04T02:23:46.688Z,98.50
2017-09-04T02:26:14.210Z,98.40
2017-09-04T02:28:41.695Z,98.40
2017-09-04T02:31:09.175Z,98.40
2017-09-04T02:33:41.748Z,98.60
2017-09-04T02:36:09.223Z,98.50
2017-09-04T02:38:36.704Z,97.30
2017-09-04T02:41:04.214Z,97.40
2017-09-04T02:43:31.695Z,97.60
2017-09-04T02:45:59.183Z,97.80
2017-09-04T02:48:26.690Z,97.90
2017-09-04T02:50:54.202Z,97.90
2017-09-04T02:53:21.695Z,98.00
2017-09-04T02:55:49.195Z,98.20
2017-09-04T02:58:16.681Z,98.30
2017-09-04T03:00:44.190Z,98.10
2017-09-04T03:03:12.614Z,98.00
2017-09-04T03:05:40.123Z,98.10
2017-09-04T03:08:07.622Z,98.20
2017-09-04T03:10:35.130Z,98.30
2017-09-04T03:13:02.611Z,98.40
2017-09-04T03:15:30.131Z,98.40
2017-09-04T03:17:57.617Z,98.30
2017-09-04T03:20:25.107Z,98.30
2017-09-04T03:22:52.617Z,98.40
2017-09-04T03:25:20.099Z,98.50
2017-09-04T03:27:47.599Z,98.60
2017-09-04T03:30:15.111Z,98.60
2017-09-04T03:32:42.598Z,98.70
2017-09-04T03:35:10.104Z,98.70
2017-09-04T03:37:37.623Z,98.70
2017-09-04T03:40:06.054Z,98.80
2017-09-04T03:42:33.554Z,98.70
2017-09-04T03:45:03.031Z,98.70
2017-09-04T03:47:30.523Z,98.70
2017-09-04T03:49:58.030Z,98.70
2017-09-04T03:52:25.538Z,98.70
2017-09-04T03:54:53.046Z,98.80
2017-09-04T03:57:20.535Z,98.80
2017-09-04T03:59:48.058Z,98.70
2017-09-04T04:02:15.542Z,98.70
2017-09-04T04:04:43.051Z,98.70
2017-09-04T04:07:10.535Z,98.70
2017-09-04T04:09:40.023Z,98.60
2017-09-04T04:12:08.466Z,98.40
2017-09-04T04:14:35.957Z,98.30
2017-09-04T04:17:03.473Z,98.10
2017-09-04T04:19:30.963Z,98.10
2017-09-04T04:21:58.454Z,98.10
2017-09-04T04:24:25.959Z,98.00
2017-09-04T04:26:53.444Z,98.00
2017-09-04T04:29:20.934Z,98.00
2017-09-04T04:31:50.452Z,98.20
2017-09-04T04:34:17.936Z,98.30
2017-09-04T04:36:45.419Z,98.50
2017-09-04T04:39:14.847Z,98.60
2017-09-04T04:41:42.330Z,98.60
2017-09-04T04:44:09.827Z,98.60
2017-09-04T04:46:37.307Z,98.60
2017-09-04T04:49:04.816Z,98.70
2017-09-04T04:51:33.235Z,98.70
2017-09-04T04:54:00.759Z,98.80
2017-09-04T04:56:28.302Z,98.80
2017-09-04T04:58:55.826Z,98.90
2017-09-04T05:01:23.319Z,98.90
2017-09-04T05:03:50.831Z,98.80
2017-09-04T05:06:18.331Z,98.70
2017-09-04T05:08:45.859Z,98.70
2017-09-04T05:11:13.670Z,98.80
2017-09-04T05:13:41.182Z,98.80
2017-09-04T05:16:08.722Z,98.70
2017-09-04T05:18:36.202Z,98.80
2017-09-04T05:21:03.729Z,98.70
2017-09-04T05:23:31.225Z,98.80
2017-09-04T05:25:58.732Z,98.90
2017-09-04T05:28:26.214Z,98.90
2017-09-04T05:30:53.706Z,98.90
2017-09-04T05:33:21.187Z,98.80
2017-09-04T05:35:48.723Z,98.80
2017-09-04T05:38:16.213Z,98.80
2017-09-04T05:40:43.723Z,98.80
2017-09-04T05:43:11.228Z,98.80
2017-09-04T05:45:38.718Z,98.80
2017-09-04T05:48:06.230Z,98.60
2017-09-04T05:50:33.761Z,98.30
2017-09-04T05:53:01.247Z,97.80
2017-09-04T05:55:28.779Z,97.70
2017-09-04T05:57:56.283Z,97.10
2017-09-04T06:00:23.771Z,96.20
2017-09-04T06:02:51.311Z,96.00
2017-09-04T06:05:18.810Z,95.70
2017-09-04T06:07:46.353Z,95.70
2017-09-04T06:10:13.854Z,95.50
2017-09-04T06:12:41.354Z,95.10
2017-09-04T06:15:08.869Z,95.00
2017-09-04T06:17:36.358Z,94.80
2017-09-04T06:20:05.814Z,95.10
2017-09-04T06:22:33.302Z,94.80
2017-09-04T06:25:00.817Z,94.10
2017-09-04T06:27:28.313Z,94.00
2017-09-04T06:29:57.771Z,93.80
2017-09-04T06:32:25.260Z,93.80
2017-09-04T06:34:52.783Z,93.80
2017-09-04T06:37:20.279Z,93.90
2017-09-04T06:39:47.794Z,93.40
2017-09-04T06:42:15.282Z,93.40
2017-09-04T06:44:42.798Z,93.00
2017-09-04T06:47:10.300Z,92.80
2017-09-04T06:49:37.807Z,92.90
2017-09-04T06:52:05.295Z,92.20
2017-09-04T06:54:32.815Z,92.10
2017-09-04T06:57:00.340Z,92.00
2017-09-04T06:59:27.853Z,92.00
2017-09-04T07:01:55.386Z,91.80
2017-09-04T07:04:22.881Z,91.20
2017-09-04T07:06:51.352Z,90.90
2017-09-04T07:09:18.877Z,91.00
2017-09-04T07:11:46.383Z,91.10
2017-09-04T07:14:13.917Z,90.90
2017-09-04T07:16:41.402Z,90.40
2017-09-04T07:19:08.914Z,90.10
2017-09-04T07:21:36.427Z,90.10
2017-09-04T07:24:03.933Z,89.40
2017-09-04T07:26:31.430Z,89.00
2017-09-04T07:28:58.947Z,89.00
2017-09-04T07:31:26.435Z,89.50
2017-09-04T07:33:53.947Z,89.40
2017-09-04T07:36:22.378Z,89.80
2017-09-04T07:38:49.890Z,89.30
2017-09-04T07:41:17.375Z,88.70
2017-09-04T07:43:44.884Z,88.70
2017-09-04T07:46:12.374Z,88.30
2017-09-04T07:48:39.883Z,88.70
2017-09-04T07:51:07.383Z,88.20
2017-09-04T07:53:34.874Z,88.20
2017-09-04T07:56:02.382Z,87.70
2017-09-04T07:58:29.880Z,87.80
2017-09-04T08:00:59.335Z,87.70
2017-09-04T08:03:26.819Z,87.10
2017-09-04T08:05:54.307Z,87.00
2017-09-04T08:08:21.830Z,87.00
2017-09-04T08:10:49.319Z,86.80
2017-09-04T08:13:16.829Z,86.70
2017-09-04T08:15:44.315Z,86.50
2017-09-04T08:18:12.739Z,86.60
2017-09-04T08:20:40.244Z,86.40
2017-09-04T08:23:07.768Z,86.00
2017-09-04T08:25:35.266Z,86.40
2017-09-04T08:28:02.770Z,86.80
2017-09-04T08:30:30.258Z,86.00
2017-09-04T08:32:57.768Z,85.20
2017-09-04T08:35:25.267Z,85.10
2017-09-04T08:37:52.763Z,85.50
2017-09-04T08:40:20.271Z,85.10
2017-09-04T08:42:47.766Z,84.50
2017-09-04T08:45:15.280Z,84.90
2017-09-04T08:47:42.827Z,84.90
2017-09-04T08:50:10.321Z,83.80
2017-09-04T08:52:39.831Z,83.70
2017-09-04T08:55:07.327Z,84.60
2017-09-04T08:57:34.827Z,83.60
2017-09-04T09:00:02.346Z,83.90
2017-09-04T09:02:29.834Z,84.00
2017-09-04T09:04:57.321Z,84.00
2017-09-04T09:07:24.837Z,83.80
2017-09-04T09:09:52.338Z,83.60
2017-09-04T09:12:19.853Z,84.50
2017-09-04T09:14:47.351Z,83.90
2017-09-04T09:17:14.858Z,82.90
2017-09-04T09:19:42.370Z,82.70
2017-09-04T09:22:09.878Z,82.70
2017-09-04T09:24:37.366Z,82.70
2017-09-04T09:27:04.886Z,81.40
2017-09-04T09:29:32.395Z,81.60
2017-09-04T09:31:59.891Z,82.20
2017-09-04T09:34:27.403Z,81.00
2017-09-04T09:36:54.919Z,81.20
2017-09-04T09:39:22.416Z,81.70
2017-09-04T09:41:49.930Z,81.90
2017-09-04T09:44:17.427Z,82.30
2017-09-04T09:46:44.934Z,80.40
2017-09-04T09:49:12.423Z,80.00
2017-09-04T09:51:39.910Z,80.30
2017-09-04T09:54:07.414Z,80.30
2017-09-04T09:56:34.910Z,80.10
2017-09-04T09:59:02.418Z,80.00
2017-09-04T10:01:30.861Z,80.80
2017-09-04T10:03:58.347Z,81.30
2017-09-04T10:06:25.882Z,79.90
2017-09-04T10:08:53.375Z,79.40
2017-09-04T10:11:22.794Z,80.00
2017-09-04T10:13:50.294Z,80.20
2017-09-04T10:16:17.788Z,79.70
2017-09-04T10:18:45.294Z,79.00
2017-09-04T10:21:12.779Z,79.00
2017-09-04T10:23:40.271Z,79.10
2017-09-04T10:26:07.780Z,79.30
2017-09-04T10:28:35.263Z,78.70
2017-09-04T10:31:02.767Z,78.80
2017-09-04T10:33:30.266Z,78.30
2017-09-04T10:35:57.755Z,78.50
2017-09-04T10:38:25.275Z,79.00
2017-09-04T10:40:52.773Z,78.20
2017-09-04T10:43:20.262Z,78.80
2017-09-04T10:45:47.770Z,78.50
2017-09-04T10:48:15.250Z,78.10
2017-09-04T10:50:42.755Z,77.70
2017-09-04T10:53:10.270Z,75.10
2017-09-04T10:55:37.760Z,75.80
2017-09-04T10:58:05.266Z,75.90
2017-09-04T11:00:32.766Z,76.10
2017-09-04T11:03:00.270Z,74.60
2017-09-04T11:05:28.324Z,75.30
2017-09-04T11:07:55.811Z,74.70
2017-09-04T11:10:23.298Z,73.80
2017-09-04T11:12:50.811Z,74.80
2017-09-04T11:15:18.294Z,73.60
2017-09-04T11:17:45.798Z,72.90
2017-09-04T11:20:13.283Z,72.80
2017-09-04T11:22:40.792Z,72.40
2017-09-04T11:25:08.307Z,72.90
2017-09-04T11:27:35.814Z,73.00
2017-09-04T11:30:03.303Z,73.10
2017-09-04T11:32:30.816Z,73.20
2017-09-04T11:34:58.299Z,72.00
2017-09-04T11:37:25.811Z,71.70
2017-09-04T11:39:54.251Z,71.80
2017-09-04T11:42:21.779Z,72.20
2017-09-04T11:44:49.267Z,71.60
2017-09-04T11:47:17.684Z,72.80
2017-09-04T11:49:45.175Z,72.90
2017-09-04T11:52:12.706Z,72.50
2017-09-04T11:54:40.199Z,72.20
2017-09-04T11:57:07.722Z,71.40
2017-09-04T11:59:35.230Z,70.80
2017-09-04T12:02:02.744Z,71.00
2017-09-04T12:04:30.227Z,71.90
2017-09-04T12:06:57.734Z,72.40
2017-09-04T12:09:25.223Z,70.90
2017-09-04T12:11:52.735Z,71.00
2017-09-04T12:14:21.167Z,71.70
2017-09-04T12:16:48.674Z,71.60
2017-09-04T12:19:16.171Z,72.30
2017-09-04T12:21:44.629Z,70.40
2017-09-04T12:24:12.115Z,71.20
2017-09-04T12:26:39.626Z,69.60
2017-09-04T12:29:08.063Z,71.90
2017-09-04T12:31:35.570Z,70.00
2017-09-04T12:34:03.063Z,70.20
2017-09-04T12:36:31.590Z,69.90
2017-09-04T12:38:59.074Z,71.10
2017-09-04T12:41:26.583Z,70.40
2017-09-04T12:43:54.980Z,71.10
2017-09-04T12:46:22.488Z,70.60
2017-09-04T12:48:49.998Z,70.00
2017-09-04T12:51:17.515Z,69.30
2017-09-04T12:53:45.008Z,70.20
2017-09-04T12:56:12.556Z,69.60
2017-09-04T12:58:40.047Z,70.20
2017-09-04T13:01:07.583Z,71.70
2017-09-04T13:03:35.069Z,69.70
2017-09-04T13:06:02.562Z,69.00
2017-09-04T13:08:30.059Z,68.20
2017-09-04T13:14:08.870Z,70.30
2017-09-04T13:16:42.141Z,70.60
2017-09-04T13:19:16.166Z,71.60
2017-09-04T13:21:49.446Z,70.10
2017-09-04T13:24:22.574Z,69.80
2017-09-04T13:26:55.814Z,69.60
2017-09-04T13:29:29.059Z,69.50
2017-09-04T13:32:03.210Z,67.60
2017-09-04T13:34:36.489Z,67.70
2017-09-04T13:37:05.907Z,65.80
2017-09-04T13:39:40.970Z,66.70
2017-09-04T13:45:27.258Z,66.60
2017-09-04T13:48:00.404Z,67.10
2017-09-04T13:50:47.657Z,66.90
2017-09-04T13:53:20.846Z,68.90
2017-09-04T13:55:54.054Z,67.60
2017-09-04T13:58:22.474Z,68.00
2017-09-04T14:00:55.787Z,68.40
2017-09-04T14:06:28.953Z,68.10
2017-09-04T14:09:02.087Z,68.10
2017-09-04T14:11:48.174Z,68.00
2017-09-04T14:14:22.170Z,68.00
2017-09-04T14:16:53.159Z,67.20
2017-09-04T14:19:20.698Z,67.60
2017-09-04T14:21:48.196Z,69.20
2017-09-04T14:24:15.753Z,69.60
2017-09-04T14:26:43.957Z,69.60
2017-09-04T14:29:11.498Z,68.80
2017-09-04T14:31:39.935Z,69.60
2017-09-04T14:34:07.487Z,70.70
2017-09-04T14:36:34.986Z,69.00
2017-09-04T14:39:02.503Z,67.20
2017-09-04T14:41:30.004Z,68.50
2017-09-04T14:44:03.219Z,68.20
2017-09-04T14:46:36.412Z,67.10
2017-09-04T14:49:03.919Z,67.00
2017-09-04T14:51:31.419Z,67.40
2017-09-04T14:53:58.919Z,67.50
2017-09-04T14:56:26.423Z,66.20
2017-09-04T14:58:53.921Z,67.10
2017-09-04T15:01:21.427Z,67.60
2017-09-04T15:03:48.958Z,67.50
2017-09-04T15:06:16.442Z,66.80
2017-09-04T15:08:43.950Z,68.10
2017-09-04T15:11:11.438Z,69.00
2017-09-04T15:13:38.971Z,67.80
2017-09-04T15:16:06.502Z,68.20
2017-09-04T15:18:34.010Z,68.70
2017-09-04T15:21:01.514Z,67.10
2017-09-04T15:23:29.004Z,66.90
2017-09-04T15:25:56.503Z,67.00
2017-09-04T15:28:24.011Z,67.20
2017-09-04T15:30:51.503Z,68.40
2017-09-04T15:33:19.019Z,67.90
2017-09-04T15:35:46.534Z,68.30
2017-09-04T15:38:14.023Z,67.60
2017-09-04T15:40:41.534Z,68.10
2017-09-04T15:43:09.026Z,67.20
2017-09-04T15:45:36.521Z,67.80
2017-09-04T15:48:04.030Z,67.80
2017-09-04T15:50:31.549Z,68.70
2017-09-04T15:52:59.066Z,68.50
2017-09-04T15:55:26.570Z,68.00
2017-09-04T15:57:54.060Z,68.50
2017-09-04T16:00:21.558Z,69.60
2017-09-04T16:02:49.066Z,68.90
2017-09-04T16:05:16.552Z,69.80
2017-09-04T16:07:45.665Z,70.10
2017-09-04T16:10:13.182Z,70.50
2017-09-04T16:12:41.150Z,70.80
2017-09-04T16:15:14.502Z,72.00
2017-09-04T16:17:47.691Z,71.70
2017-09-04T16:20:15.195Z,71.80
2017-09-04T16:22:44.299Z,72.40
2017-09-04T16:25:13.262Z,72.90
2017-09-04T16:27:44.200Z,72.60
2017-09-04T16:30:13.188Z,73.10
2017-09-04T16:32:46.413Z,73.30
2017-09-04T16:35:14.514Z,73.70
2017-09-04T16:41:04.893Z,74.10
2017-09-04T16:43:34.027Z,74.40
2017-09-04T16:46:18.327Z,74.70
2017-09-04T16:49:04.489Z,74.70
2017-09-04T16:51:32.894Z,74.70
2017-09-04T16:54:01.954Z,74.60
2017-09-04T16:56:29.459Z,74.90
2017-09-04T16:58:57.875Z,74.50
2017-09-04T17:01:25.370Z,74.70
2017-09-04T17:03:52.923Z,74.50
2017-09-04T17:06:20.411Z,75.10
2017-09-04T17:08:51.649Z,74.90
2017-09-04T17:11:19.955Z,75.40
2017-09-04T17:13:47.460Z,74.70
2017-09-04T17:16:15.018Z,75.50
2017-09-04T17:18:48.085Z,75.70
2017-09-04T17:21:15.602Z,76.30
2017-09-04T17:23:43.607Z,75.40
2017-09-04T17:26:12.052Z,76.20
2017-09-04T17:28:39.557Z,76.00
2017-09-04T17:31:07.063Z,75.70
2017-09-04T17:33:34.543Z,76.00
2017-09-04T17:36:02.042Z,75.90
2017-09-04T17:38:29.559Z,76.30
2017-09-04T17:40:57.068Z,76.20
2017-09-04T17:43:24.634Z,76.80
2017-09-04T17:45:52.249Z,77.20
2017-09-04T17:48:19.795Z,77.10
2017-09-04T17:50:47.394Z,77.50
2017-09-04T17:53:14.918Z,77.20
2017-09-04T17:55:42.511Z,77.70
2017-09-04T17:58:10.084Z,77.90
2017-09-04T18:00:37.678Z,77.50
2017-09-04T18:03:05.293Z,77.90
2017-09-04T18:05:32.825Z,78.00
2017-09-04T18:08:00.427Z,78.10
2017-09-04T18:10:27.992Z,78.10
2017-09-04T18:12:55.544Z,78.70
2017-09-04T18:15:23.122Z,78.20
2017-09-04T18:17:50.688Z,77.90
2017-09-04T18:20:18.336Z,77.30
2017-09-04T18:22:45.954Z,77.80
2017-09-04T18:25:13.559Z,77.10
2017-09-04T18:27:41.116Z,77.70
2017-09-04T18:30:08.718Z,77.50
2017-09-04T18:32:36.571Z,77.50
2017-09-04T18:35:04.182Z,77.50
2017-09-04T18:37:31.717Z,77.50
2017-09-04T18:39:59.251Z,77.90
2017-09-04T18:45:01.655Z,78.30
2017-09-04T18:47:29.206Z,78.10
2017-09-04T18:49:56.796Z,78.10
2017-09-04T18:52:24.475Z,78.60
2017-09-04T18:54:52.036Z,78.20
2017-09-04T18:57:19.680Z,78.40
2017-09-04T18:59:47.246Z,78.70
2017-09-04T19:02:14.803Z,78.80
2017-09-04T19:04:42.374Z,79.00
2017-09-04T19:07:10.883Z,79.00
2017-09-04T19:09:38.444Z,78.90
2017-09-04T19:12:06.047Z,79.80
2017-09-04T19:14:33.671Z,79.70
2017-09-04T19:17:01.260Z,79.30
2017-09-04T19:19:28.785Z,79.60
2017-09-04T19:21:56.398Z,79.40
2017-09-04T19:24:24.026Z,79.20
2017-09-04T19:26:51.568Z,79.20
2017-09-04T19:29:19.098Z,79.50
2017-09-04T19:31:46.671Z,80.20
2017-09-04T19:34:14.258Z,80.20
2017-09-04T19:36:41.848Z,80.40
2017-09-04T19:39:09.357Z,80.50
2017-09-04T19:41:36.920Z,81.00
2017-09-04T19:44:04.438Z,80.90
2017-09-04T19:46:33.809Z,81.00
2017-09-04T19:49:01.350Z,80.90
2017-09-04T19:51:28.949Z,81.10
2017-09-04T19:53:56.493Z,81.00
2017-09-04T19:56:24.076Z,81.40
2017-09-04T19:58:51.693Z,81.40
2017-09-04T20:01:19.202Z,81.30
2017-09-04T20:03:46.870Z,81.30
2017-09-04T20:06:14.384Z,81.20
2017-09-04T20:08:42.703Z,81.30
2017-09-04T20:11:10.297Z,81.20
2017-09-04T20:13:37.885Z,81.00
2017-09-04T20:16:05.444Z,81.20
2017-09-04T20:18:33.033Z,81.30
2017-09-04T20:21:01.370Z,81.30
2017-09-04T20:23:28.914Z,81.30
2017-09-04T20:25:56.560Z,81.50
2017-09-04T20:28:24.122Z,81.60
2017-09-04T20:30:51.667Z,82.00
2017-09-04T20:33:19.213Z,82.30
2017-09-04T20:35:46.761Z,83.00
2017-09-04T20:38:14.305Z,83.00
2017-09-04T20:40:41.854Z,82.70
2017-09-04T20:43:09.401Z,82.30
2017-09-04T20:45:37.010Z,82.90
2017-09-04T20:48:04.535Z,82.80
2017-09-04T20:50:32.150Z,82.60
2017-09-04T20:52:59.660Z,82.50
2017-09-04T20:55:29.207Z,83.00
2017-09-04T20:57:57.720Z,82.80
2017-09-04T21:00:25.279Z,83.40
2017-09-04T21:02:52.806Z,83.30
2017-09-04T21:05:21.521Z,83.40
2017-09-04T21:07:49.203Z,83.60
2017-09-04T21:10:16.792Z,83.70
2017-09-04T21:12:44.334Z,83.90
2017-09-04T21:15:12.780Z,84.10
2017-09-04T21:17:40.370Z,84.40
2017-09-04T21:20:07.957Z,84.90
2017-09-04T21:22:39.601Z,85.10
2017-09-04T21:25:08.398Z,85.10
2017-09-04T21:27:36.525Z,84.90
2017-09-04T21:30:04.266Z,83.70
2017-09-04T21:32:35.048Z,84.00
2017-09-04T21:35:03.874Z,84.10
2017-09-04T21:37:32.594Z,84.20
2017-09-04T21:40:00.256Z,84.00
2017-09-04T21:42:27.947Z,84.00
2017-09-04T21:44:56.625Z,84.30
2017-09-04T21:47:25.130Z,84.20
2017-09-04T21:49:53.908Z,84.40
2017-09-04T21:52:21.459Z,84.10
2017-09-04T21:54:50.786Z,84.30
2017-09-04T21:57:18.337Z,84.00
2017-09-04T21:59:47.995Z,84.30
2017-09-04T22:02:16.645Z,84.30
2017-09-04T22:04:44.224Z,84.40
2017-09-04T22:07:11.778Z,84.70
2017-09-04T22:09:39.328Z,84.50
2017-09-04T22:12:06.830Z,84.60
2017-09-04T22:14:35.929Z,84.50
2017-09-04T22:17:03.474Z,84.40
2017-09-04T22:19:31.151Z,84.80
2017-09-04T22:22:02.643Z,84.90
2017-09-04T22:24:31.615Z,85.00
2017-09-04T22:26:59.233Z,85.00
2017-09-04T22:29:26.825Z,85.00
2017-09-04T22:31:54.337Z,85.10
2017-09-04T22:34:21.918Z,85.40
2017-09-04T22:36:49.457Z,85.80
2017-09-04T22:39:18.262Z,85.90
2017-09-04T22:41:45.906Z,85.50
2017-09-04T22:44:17.213Z,85.60
2017-09-04T22:46:44.766Z,85.50
2017-09-04T22:49:13.291Z,85.70
2017-09-04T22:51:40.807Z,86.30
2017-09-04T22:54:08.307Z,86.40
2017-09-04T22:56:35.802Z,86.70
2017-09-04T22:59:03.316Z,87.00
2017-09-04T23:01:31.735Z,87.10
2017-09-04T23:03:59.247Z,86.80
2017-09-04T23:06:26.736Z,86.60
2017-09-04T23:08:54.254Z,87.20
2017-09-04T23:11:22.630Z,87.40
2017-09-04T23:13:50.136Z,87.40
2017-09-04T23:16:17.616Z,87.30
2017-09-04T23:18:45.119Z,87.40
2017-09-04T23:21:12.615Z,87.00
2017-09-04T23:23:40.103Z,87.80
2017-09-04T23:26:07.607Z,87.70
2017-09-04T23:28:35.093Z,87.50
2017-09-04T23:31:02.593Z,87.60
2017-09-04T23:33:30.085Z,87.50
2017-09-04T23:35:57.588Z,87.30
2017-09-04T23:38:25.071Z,87.30
2017-09-04T23:40:52.582Z,87.50
2017-09-04T23:43:21.005Z,87.70
2017-09-04T23:45:48.511Z,87.50
2017-09-04T23:48:16.011Z,87.50
2017-09-04T23:50:43.519Z,87.80
2017-09-04T23:53:11.032Z,87.90
2017-09-04T23:55:38.523Z,88.10
2017-09-04T23:58:07.950Z,87.90
